createdAt,value
2018-05-11T00:00:28.136Z,8.02
2018-05-11T00:01:36.200Z,8.02
2018-05-11T00:02:44.267Z,8.05
2018-05-11T00:03:52.328Z,8.05
2018-05-11T00:05:00.471Z,8.08
2018-05-11T00:06:08.424Z,8.08
2018-05-11T00:07:16.566Z,8.01
2018-05-11T00:08:24.548Z,8.01
2018-05-11T00:09:32.636Z,7.90
2018-05-11T00:10:40.681Z,7.90
2018-05-11T00:11:48.751Z,7.85
2018-05-11T00:12:56.808Z,7.87
2018-05-11T00:14:04.886Z,7.90
2018-05-11T00:15:12.929Z,7.90
2018-05-11T00:16:20.967Z,7.83
2018-05-11T00:17:29.057Z,7.88
2018-05-11T00:18:37.101Z,7.84
2018-05-11T00:19:45.145Z,7.72
2018-05-11T00:20:53.231Z,7.75
2018-05-11T00:22:01.258Z,7.70
2018-05-11T00:23:09.331Z,7.69
2018-05-11T00:24:17.408Z,7.64
2018-05-11T00:25:25.458Z,7.59
2018-05-11T00:26:33.528Z,7.59
2018-05-11T00:27:41.578Z,7.50
2018-05-11T00:28:49.648Z,7.51
2018-05-11T00:29:57.692Z,7.44
2018-05-11T00:31:05.763Z,7.37
2018-05-11T00:32:13.838Z,7.43
2018-05-11T00:33:21.865Z,7.26
2018-05-11T00:34:29.943Z,7.25
2018-05-11T00:35:37.987Z,7.25
2018-05-11T00:36:46.060Z,7.15
2018-05-11T00:37:54.126Z,7.21
2018-05-11T00:39:02.170Z,7.14
2018-05-11T00:40:10.225Z,7.15
2018-05-11T00:41:18.309Z,7.07
2018-05-11T00:42:26.375Z,7.08
2018-05-11T00:43:34.410Z,7.05
2018-05-11T00:44:42.461Z,6.96
2018-05-11T00:45:50.552Z,7.04
2018-05-11T00:46:58.581Z,7.00
2018-05-11T00:48:06.662Z,6.92
2018-05-11T00:49:14.700Z,6.92
2018-05-11T00:50:22.760Z,6.90
2018-05-11T00:51:30.837Z,6.89
2018-05-11T00:52:38.887Z,6.86
2018-05-11T00:53:46.958Z,6.92
2018-05-11T00:54:55.003Z,6.89
2018-05-11T00:56:03.093Z,6.95
2018-05-11T00:57:11.134Z,6.86
2018-05-11T00:58:19.167Z,6.89
2018-05-11T00:59:27.246Z,6.85
2018-05-11T01:00:35.300Z,6.82
2018-05-11T01:01:43.376Z,6.90
2018-05-11T01:02:51.402Z,6.85
2018-05-11T01:03:59.502Z,6.86
2018-05-11T01:05:07.536Z,6.90
2018-05-11T01:06:15.614Z,6.89
2018-05-11T01:07:23.674Z,6.89
2018-05-11T01:08:31.710Z,6.83
2018-05-11T01:09:39.779Z,6.89
2018-05-11T01:10:47.837Z,6.89
2018-05-11T01:11:55.904Z,6.92
2018-05-11T01:13:03.969Z,6.89
2018-05-11T01:14:12.008Z,6.93
2018-05-11T01:15:20.092Z,6.89
2018-05-11T01:16:28.136Z,6.86
2018-05-11T01:17:36.207Z,6.82
2018-05-11T01:18:44.255Z,6.82
2018-05-11T01:19:52.311Z,6.71
2018-05-11T01:21:00.366Z,6.71
2018-05-11T01:22:08.451Z,6.70
2018-05-11T01:23:16.478Z,6.70
2018-05-11T01:24:24.536Z,6.77
2018-05-11T01:25:32.587Z,6.67
2018-05-11T01:26:40.639Z,6.60
2018-05-11T01:27:48.720Z,6.60
2018-05-11T01:28:56.775Z,6.65
2018-05-11T01:30:04.842Z,6.60
2018-05-11T01:31:12.901Z,6.70
2018-05-11T01:32:20.942Z,6.71
2018-05-11T01:33:29.022Z,6.60
2018-05-11T01:34:37.070Z,6.59
2018-05-11T01:35:45.140Z,6.50
2018-05-11T01:36:53.177Z,6.49
2018-05-11T01:38:01.256Z,6.54
2018-05-11T01:39:09.305Z,6.50
2018-05-11T01:40:17.355Z,6.52
2018-05-11T01:41:25.427Z,6.50
2018-05-11T01:42:33.478Z,6.43
2018-05-11T01:43:41.555Z,6.49
2018-05-11T01:44:49.601Z,6.46
2018-05-11T01:45:57.657Z,6.39
2018-05-11T01:47:05.718Z,6.39
2018-05-11T01:48:13.790Z,6.36
2018-05-11T01:49:21.811Z,6.36
2018-05-11T01:50:29.906Z,6.34
2018-05-11T01:51:37.954Z,6.34
2018-05-11T01:52:46.025Z,6.22
2018-05-11T01:53:54.063Z,6.36
2018-05-11T01:55:02.131Z,6.34
2018-05-11T01:56:10.193Z,6.29
2018-05-11T01:57:18.243Z,6.25
2018-05-11T01:58:26.296Z,6.20
2018-05-11T01:59:34.349Z,6.22
2018-05-11T02:00:42.404Z,6.17
2018-05-11T02:01:50.475Z,6.19
2018-05-11T02:02:58.529Z,6.07
2018-05-11T02:04:06.598Z,6.13
2018-05-11T02:05:14.642Z,6.12
2018-05-11T02:06:22.715Z,6.09
2018-05-11T02:07:30.761Z,6.07
2018-05-11T02:08:38.841Z,6.09
2018-05-11T02:09:46.895Z,6.06
2018-05-11T02:10:54.957Z,6.05
2018-05-11T02:12:03.005Z,6.09
2018-05-11T02:13:11.055Z,6.10
2018-05-11T02:14:19.127Z,6.09
2018-05-11T02:15:27.193Z,6.09
2018-05-11T02:16:35.252Z,6.17
2018-05-11T02:17:43.295Z,6.05
2018-05-11T02:18:51.328Z,6.05
2018-05-11T02:19:59.425Z,6.09
2018-05-11T02:21:07.480Z,6.12
2018-05-11T02:22:15.557Z,6.09
2018-05-11T02:23:23.604Z,6.19
2018-05-11T02:24:31.612Z,6.20
2018-05-11T02:25:39.701Z,6.22
2018-05-11T02:26:47.759Z,6.26
2018-05-11T02:27:55.834Z,6.29
2018-05-11T02:29:03.898Z,6.36
2018-05-11T02:30:11.919Z,6.41
2018-05-11T02:31:20.000Z,6.31
2018-05-11T02:32:28.094Z,6.36
2018-05-11T02:33:36.138Z,6.25
2018-05-11T02:34:44.168Z,6.25
2018-05-11T02:35:52.223Z,6.28
2018-05-11T02:37:00.292Z,6.19
2018-05-11T02:38:08.335Z,6.28
2018-05-11T02:39:16.412Z,6.25
2018-05-11T02:40:24.448Z,6.25
2018-05-11T02:41:32.527Z,6.19
2018-05-11T02:42:40.576Z,6.13
2018-05-11T02:43:48.629Z,6.09
2018-05-11T02:44:56.708Z,6.06
2018-05-11T02:46:04.750Z,5.97
2018-05-11T02:47:12.819Z,6.02
2018-05-11T02:48:20.884Z,5.91
2018-05-11T02:49:28.933Z,5.87
2018-05-11T02:50:37.067Z,5.80
2018-05-11T02:51:45.047Z,5.72
2018-05-11T02:52:53.077Z,5.67
2018-05-11T02:54:01.152Z,5.62
2018-05-11T02:55:09.243Z,5.61
2018-05-11T02:56:17.286Z,5.67
2018-05-11T02:57:25.349Z,5.62
2018-05-11T02:58:33.403Z,5.55
2018-05-11T02:59:41.451Z,5.72
2018-05-11T03:00:49.510Z,5.70
2018-05-11T03:01:57.578Z,5.52
2018-05-11T03:03:05.634Z,5.52
2018-05-11T03:04:13.697Z,5.61
2018-05-11T03:05:21.730Z,5.52
2018-05-11T03:06:29.798Z,5.47
2018-05-11T03:07:37.870Z,5.49
2018-05-11T03:08:45.936Z,5.46
2018-05-11T03:09:53.982Z,5.43
2018-05-11T03:11:02.027Z,5.54
2018-05-11T03:12:10.098Z,5.49
2018-05-11T03:13:18.154Z,5.47
2018-05-11T03:14:26.264Z,5.46
2018-05-11T03:15:34.278Z,5.51
2018-05-11T03:16:42.346Z,5.51
2018-05-11T03:17:50.370Z,5.49
2018-05-11T03:18:58.452Z,5.38
2018-05-11T03:20:06.496Z,5.46
2018-05-11T03:21:14.564Z,5.36
2018-05-11T03:22:22.628Z,5.37
2018-05-11T03:23:30.677Z,5.38
2018-05-11T03:24:38.742Z,5.36
2018-05-11T03:25:46.790Z,5.36
2018-05-11T03:26:54.859Z,5.40
2018-05-11T03:28:02.931Z,5.47
2018-05-11T03:29:10.959Z,5.54
2018-05-11T03:30:19.034Z,5.52
2018-05-11T03:31:27.113Z,5.46
2018-05-11T03:32:35.147Z,5.46
2018-05-11T03:33:43.216Z,5.59
2018-05-11T03:34:51.265Z,5.58
2018-05-11T03:35:59.326Z,5.62
2018-05-11T03:37:07.377Z,5.61
2018-05-11T03:38:15.425Z,5.61
2018-05-11T03:39:23.505Z,5.67
2018-05-11T03:40:31.557Z,5.65
2018-05-11T03:41:39.615Z,5.76
2018-05-11T03:42:47.668Z,5.67
2018-05-11T03:43:55.735Z,5.67
2018-05-11T03:45:03.790Z,5.64
2018-05-11T03:46:11.823Z,5.69
2018-05-11T03:47:19.912Z,5.61
2018-05-11T03:48:27.955Z,5.55
2018-05-11T03:49:36.015Z,5.47
2018-05-11T03:50:44.063Z,5.52
2018-05-11T03:51:52.128Z,5.56
2018-05-11T03:53:00.192Z,5.58
2018-05-11T03:54:08.250Z,5.52
2018-05-11T03:55:16.307Z,5.55
2018-05-11T03:56:24.386Z,5.61
2018-05-11T03:57:32.417Z,5.59
2018-05-11T03:58:40.480Z,5.64
2018-05-11T03:59:48.548Z,5.73
2018-05-11T04:00:56.589Z,5.72
2018-05-11T04:02:04.646Z,5.76
2018-05-11T04:03:12.741Z,5.79
2018-05-11T04:04:20.760Z,5.80
2018-05-11T04:05:28.835Z,5.77
2018-05-11T04:06:36.876Z,5.79
2018-05-11T04:07:44.941Z,5.84
2018-05-11T04:08:52.997Z,5.83
2018-05-11T04:10:01.063Z,5.88
2018-05-11T04:11:09.117Z,5.94
2018-05-11T04:12:17.191Z,5.92
2018-05-11T04:13:25.219Z,5.95
2018-05-11T04:14:33.302Z,6.05
2018-05-11T04:15:41.320Z,6.05
2018-05-11T04:16:49.401Z,6.06
2018-05-11T04:17:57.478Z,6.05
2018-05-11T04:19:05.537Z,5.94
2018-05-11T04:20:13.591Z,5.99
2018-05-11T04:21:21.625Z,6.09
2018-05-11T04:22:29.708Z,6.12
2018-05-11T04:23:37.733Z,6.16
2018-05-11T04:24:45.815Z,6.07
2018-05-11T04:25:54.035Z,6.07
2018-05-11T04:27:01.911Z,6.10
2018-05-11T04:28:10.066Z,6.12
2018-05-11T04:29:18.055Z,6.15
2018-05-11T04:30:26.124Z,6.16
2018-05-11T04:31:34.184Z,6.25
2018-05-11T04:32:42.227Z,6.17
2018-05-11T04:33:50.269Z,6.22
2018-05-11T04:34:58.786Z,6.25
2018-05-11T04:36:06.407Z,6.25
2018-05-11T04:37:14.546Z,6.28
2018-05-11T04:38:22.503Z,6.28
2018-05-11T04:39:30.574Z,6.22
2018-05-11T04:40:38.645Z,6.34
2018-05-11T04:41:46.692Z,6.34
2018-05-11T04:42:54.746Z,6.41
2018-05-11T04:44:03.108Z,6.39
2018-05-11T04:45:10.923Z,6.41
2018-05-11T04:46:18.922Z,6.43
2018-05-11T04:47:26.966Z,6.41
2018-05-11T04:48:35.024Z,6.50
2018-05-11T04:49:43.110Z,6.44
2018-05-11T04:50:51.155Z,6.50
2018-05-11T04:51:59.220Z,6.56
2018-05-11T04:53:07.284Z,6.62
2018-05-11T04:54:15.332Z,6.75
2018-05-11T04:55:23.389Z,6.92
2018-05-11T04:56:31.428Z,6.87
2018-05-11T04:57:39.814Z,6.87
2018-05-11T04:58:47.576Z,6.97
2018-05-11T04:59:55.641Z,7.04
2018-05-11T05:01:03.677Z,7.04
2018-05-11T05:02:11.735Z,7.21
2018-05-11T05:03:19.793Z,7.23
2018-05-11T05:04:27.850Z,7.29
2018-05-11T05:05:35.926Z,7.22
2018-05-11T05:06:43.972Z,7.37
2018-05-11T05:07:52.015Z,7.39
2018-05-11T05:09:00.081Z,7.31
2018-05-11T05:10:08.372Z,7.44
2018-05-11T05:11:16.220Z,7.40
2018-05-11T05:12:24.729Z,7.44
2018-05-11T05:13:32.336Z,7.48
2018-05-11T05:14:40.425Z,7.50
2018-05-11T05:15:48.442Z,7.66
2018-05-11T05:16:56.500Z,7.61
2018-05-11T05:18:04.576Z,7.66
2018-05-11T05:19:12.626Z,7.66
2018-05-11T05:20:20.700Z,7.70
2018-05-11T05:21:28.760Z,7.66
2018-05-11T05:22:36.815Z,7.83
2018-05-11T05:23:44.854Z,7.90
2018-05-11T05:24:52.931Z,7.99
2018-05-11T05:26:00.973Z,8.17
2018-05-11T05:27:09.053Z,8.18
2018-05-11T05:28:17.109Z,8.45
2018-05-11T05:29:25.182Z,8.41
2018-05-11T05:30:33.246Z,8.52
2018-05-11T05:31:41.283Z,8.60
2018-05-11T05:32:49.348Z,8.57
2018-05-11T05:33:57.395Z,8.69
2018-05-11T05:35:05.473Z,8.61
2018-05-11T05:36:13.545Z,8.75
2018-05-11T05:37:21.575Z,8.79
2018-05-11T05:38:29.656Z,8.79
2018-05-11T05:39:37.707Z,8.79
2018-05-11T05:40:45.776Z,8.78
2018-05-11T05:41:53.837Z,8.92
2018-05-11T05:43:01.865Z,9.00
2018-05-11T05:44:09.965Z,8.96
2018-05-11T05:45:18.000Z,9.03
2018-05-11T05:46:26.043Z,8.97
2018-05-11T05:47:34.121Z,9.12
2018-05-11T05:48:42.188Z,9.05
2018-05-11T05:49:50.246Z,9.16
2018-05-11T05:50:58.311Z,9.15
2018-05-11T05:52:06.421Z,9.26
2018-05-11T05:53:14.442Z,9.33
2018-05-11T05:54:22.499Z,9.40
2018-05-11T05:55:30.542Z,9.42
2018-05-11T05:56:38.619Z,9.42
2018-05-11T05:57:46.681Z,9.45
2018-05-11T05:58:54.747Z,9.55
2018-05-11T06:00:02.874Z,9.55
2018-05-11T06:01:10.844Z,9.67
2018-05-11T06:02:18.905Z,9.70
2018-05-11T06:03:26.964Z,9.70
2018-05-11T06:04:35.119Z,9.73
2018-05-11T06:05:43.102Z,9.74
2018-05-11T06:06:51.160Z,9.76
2018-05-11T06:07:59.213Z,9.87
2018-05-11T06:09:07.287Z,9.97
2018-05-11T06:10:15.355Z,10.00
2018-05-11T06:11:23.388Z,10.06
2018-05-11T06:12:31.452Z,10.12
2018-05-11T06:13:39.533Z,10.20
2018-05-11T06:14:47.566Z,10.25
2018-05-11T06:15:55.655Z,10.30
2018-05-11T06:17:03.689Z,10.41
2018-05-11T06:18:11.747Z,10.43
2018-05-11T06:19:19.830Z,10.48
2018-05-11T06:20:27.884Z,10.43
2018-05-11T06:21:35.936Z,10.53
2018-05-11T06:22:44.001Z,10.61
2018-05-11T06:23:52.127Z,10.61
2018-05-11T06:25:00.137Z,10.67
2018-05-11T06:26:08.170Z,10.65
2018-05-11T06:27:16.251Z,10.76
2018-05-11T06:28:24.317Z,10.79
2018-05-11T06:29:32.364Z,10.86
2018-05-11T06:30:40.429Z,10.75
2018-05-11T06:31:48.512Z,10.87
2018-05-11T06:32:56.576Z,10.97
2018-05-11T06:34:04.628Z,10.98
2018-05-11T06:35:12.684Z,11.00
2018-05-11T06:36:20.744Z,10.97
2018-05-11T06:37:28.795Z,11.05
2018-05-11T06:38:36.843Z,11.15
2018-05-11T06:39:44.925Z,11.18
2018-05-11T06:40:52.974Z,11.16
2018-05-11T06:42:01.046Z,11.38
2018-05-11T06:43:09.093Z,11.38
2018-05-11T06:44:17.197Z,11.45
2018-05-11T06:45:25.237Z,11.43
2018-05-11T06:46:33.287Z,11.41
2018-05-11T06:47:41.331Z,11.45
2018-05-11T06:48:49.436Z,11.58
2018-05-11T06:49:57.497Z,11.53
2018-05-11T06:51:05.548Z,11.55
2018-05-11T06:52:13.600Z,11.55
2018-05-11T06:53:21.634Z,11.68
2018-05-11T06:54:29.732Z,11.76
2018-05-11T06:55:37.792Z,11.81
2018-05-11T06:56:45.841Z,11.86
2018-05-11T06:57:53.900Z,11.95
2018-05-11T06:59:01.959Z,11.91
2018-05-11T07:00:10.043Z,12.02
2018-05-11T07:01:18.169Z,11.91
2018-05-11T07:02:26.144Z,11.85
2018-05-11T07:03:34.232Z,11.95
2018-05-11T07:04:42.291Z,12.05
2018-05-11T07:05:50.333Z,12.14
2018-05-11T07:06:58.419Z,12.10
2018-05-11T07:08:06.510Z,12.23
2018-05-11T07:09:14.525Z,12.21
2018-05-11T07:10:22.591Z,12.33
2018-05-11T07:11:30.637Z,12.21
2018-05-11T07:12:38.731Z,12.30
2018-05-11T07:13:46.787Z,12.43
2018-05-11T07:14:54.843Z,12.78
2018-05-11T07:16:02.888Z,13.28
2018-05-11T07:17:10.953Z,13.68
2018-05-11T07:18:19.036Z,13.78
2018-05-11T07:19:27.157Z,13.93
2018-05-11T07:20:35.160Z,14.08
2018-05-11T07:21:43.224Z,14.38
2018-05-11T07:22:51.281Z,14.56
2018-05-11T07:23:59.341Z,14.77
2018-05-11T07:25:07.417Z,15.11
2018-05-11T07:26:15.467Z,15.11
2018-05-11T07:27:23.553Z,15.26
2018-05-11T07:28:31.604Z,15.36
2018-05-11T07:29:39.683Z,16.06
2018-05-11T07:30:47.746Z,16.69
2018-05-11T07:31:55.800Z,16.77
2018-05-11T07:33:03.868Z,16.66
2018-05-11T07:34:11.904Z,17.30
2018-05-11T07:35:20.022Z,17.57
2018-05-11T07:36:28.075Z,16.83
2018-05-11T07:37:36.134Z,17.07
2018-05-11T07:38:44.216Z,16.82
2018-05-11T07:39:52.273Z,16.72
2018-05-11T07:41:00.371Z,16.80
2018-05-11T07:42:08.439Z,16.97
2018-05-11T07:43:16.510Z,16.68
2018-05-11T07:44:24.578Z,16.80
2018-05-11T07:45:32.642Z,16.37
2018-05-11T07:46:40.711Z,16.36
2018-05-11T07:47:48.777Z,16.37
2018-05-11T07:48:56.852Z,15.80
2018-05-11T07:50:04.919Z,16.22
2018-05-11T07:51:13.027Z,16.58
2018-05-11T07:52:21.065Z,16.00
2018-05-11T07:53:29.133Z,16.06
2018-05-11T07:54:37.180Z,16.10
2018-05-11T07:55:45.266Z,15.91
2018-05-11T07:56:53.348Z,15.19
2018-05-11T07:58:01.406Z,15.75
2018-05-11T07:59:09.470Z,15.91
2018-05-11T08:00:17.562Z,15.72
2018-05-11T08:01:25.629Z,16.00
2018-05-11T08:02:33.707Z,16.92
2018-05-11T08:03:41.749Z,16.86
2018-05-11T08:04:49.823Z,17.46
2018-05-11T08:05:57.912Z,17.13
2018-05-11T08:07:05.977Z,17.59
2018-05-11T08:08:14.132Z,17.02
2018-05-11T08:09:22.102Z,17.44
2018-05-11T08:10:30.185Z,17.68
2018-05-11T08:11:38.257Z,18.49
2018-05-11T08:12:46.354Z,18.92
2018-05-11T08:13:54.426Z,19.67
2018-05-11T08:15:02.488Z,19.57
2018-05-11T08:16:10.559Z,20.18
2018-05-11T08:17:18.636Z,20.53
2018-05-11T08:18:26.708Z,20.56
2018-05-11T08:19:34.796Z,20.11
2018-05-11T08:20:42.885Z,20.44
2018-05-11T08:21:50.936Z,20.10
2018-05-11T08:22:59.011Z,20.53
2018-05-11T08:24:07.094Z,20.77
2018-05-11T08:25:15.167Z,20.40
2018-05-11T08:26:23.236Z,20.55
2018-05-11T08:27:31.313Z,20.86
2018-05-11T08:28:39.388Z,20.92
2018-05-11T08:29:47.479Z,21.15
2018-05-11T08:30:55.552Z,21.22
2018-05-11T08:32:03.630Z,21.32
2018-05-11T08:33:11.686Z,21.07
2018-05-11T08:34:19.847Z,20.46
2018-05-11T08:35:27.866Z,19.71
2018-05-11T08:36:35.953Z,19.15
2018-05-11T08:37:44.020Z,18.52
2018-05-11T08:38:52.076Z,19.08
2018-05-11T08:40:00.269Z,19.60
2018-05-11T08:41:08.226Z,19.74
2018-05-11T08:42:16.337Z,20.24
2018-05-11T08:43:24.414Z,20.77
2018-05-11T08:44:32.482Z,21.05
2018-05-11T08:45:40.545Z,21.32
2018-05-11T08:46:48.650Z,21.66
2018-05-11T08:47:56.771Z,21.68
2018-05-11T08:49:04.835Z,22.01
2018-05-11T08:50:12.868Z,21.96
2018-05-11T08:51:20.933Z,22.26
2018-05-11T08:52:29.038Z,22.12
2018-05-11T08:53:37.116Z,21.88
2018-05-11T08:54:45.198Z,21.41
2018-05-11T08:55:53.299Z,20.55
2018-05-11T08:57:01.336Z,20.48
2018-05-11T08:58:09.419Z,20.59
2018-05-11T08:59:17.517Z,21.04
2018-05-11T09:00:25.563Z,21.40
2018-05-11T09:01:33.671Z,21.56
2018-05-11T09:02:41.710Z,20.50
2018-05-11T09:03:49.824Z,20.48
2018-05-11T09:04:57.902Z,20.44
2018-05-11T09:06:05.958Z,20.74
2018-05-11T09:07:14.036Z,20.30
2018-05-11T09:08:22.163Z,19.63
2018-05-11T09:09:30.236Z,19.24
2018-05-11T09:10:38.269Z,18.92
2018-05-11T09:11:46.353Z,18.81
2018-05-11T09:12:54.436Z,19.00
2018-05-11T09:14:02.514Z,18.67
2018-05-11T09:15:10.575Z,18.79
2018-05-11T09:16:18.672Z,18.73
2018-05-11T09:17:26.735Z,19.09
2018-05-11T09:18:34.814Z,18.52
2018-05-11T09:19:42.867Z,18.06
2018-05-11T09:20:50.967Z,18.06
2018-05-11T09:21:59.035Z,17.97
2018-05-11T09:23:07.103Z,18.02
2018-05-11T09:24:15.188Z,18.21
2018-05-11T09:25:23.242Z,18.33
2018-05-11T09:26:31.320Z,18.41
2018-05-11T09:27:39.384Z,18.37
2018-05-11T09:28:47.460Z,18.52
2018-05-11T09:29:55.548Z,18.49
2018-05-11T09:31:03.618Z,17.82
2018-05-11T09:32:11.675Z,17.17
2018-05-11T09:33:19.764Z,17.41
2018-05-11T09:34:27.835Z,17.52
2018-05-11T09:35:35.896Z,17.68
2018-05-11T09:36:43.968Z,18.02
2018-05-11T09:37:52.024Z,18.05
2018-05-11T09:39:00.094Z,18.19
2018-05-11T09:40:08.164Z,18.51
2018-05-11T09:41:16.235Z,18.73
2018-05-11T09:42:24.320Z,18.41
2018-05-11T09:43:32.381Z,18.48
2018-05-11T09:44:40.476Z,18.15
2018-05-11T09:45:48.527Z,18.53
2018-05-11T09:46:56.604Z,18.71
2018-05-11T09:48:04.652Z,18.83
2018-05-11T09:49:12.748Z,18.66
2018-05-11T09:50:20.795Z,18.81
2018-05-11T09:51:28.884Z,18.43
2018-05-11T09:52:36.944Z,18.67
2018-05-11T09:53:45.013Z,19.00
2018-05-11T09:54:53.106Z,19.11
2018-05-11T09:56:01.168Z,18.76
2018-05-11T09:57:09.225Z,18.94
2018-05-11T09:58:17.306Z,19.23
2018-05-11T09:59:25.372Z,19.00
2018-05-11T10:00:33.440Z,19.39
2018-05-11T10:01:41.512Z,19.70
2018-05-11T10:02:49.577Z,19.67
2018-05-11T10:03:57.626Z,19.94
2018-05-11T10:05:05.722Z,19.81
2018-05-11T10:06:13.793Z,20.02
2018-05-11T10:07:21.833Z,20.27
2018-05-11T10:08:29.934Z,20.22
2018-05-11T10:09:37.994Z,20.33
2018-05-11T10:10:46.062Z,20.26
2018-05-11T10:11:54.141Z,20.19
2018-05-11T10:13:02.183Z,19.55
2018-05-11T10:14:10.248Z,19.70
2018-05-11T10:15:18.335Z,19.77
2018-05-11T10:16:26.386Z,20.15
2018-05-11T10:17:34.456Z,20.17
2018-05-11T10:18:42.550Z,19.67
2018-05-11T10:19:50.609Z,19.49
2018-05-11T10:20:58.684Z,18.98
2018-05-11T10:22:06.762Z,19.07
2018-05-11T10:23:14.811Z,19.04
2018-05-11T10:24:22.904Z,18.58
2018-05-11T10:25:30.976Z,18.11
2018-05-11T10:26:39.049Z,17.87
2018-05-11T10:27:47.109Z,17.90
2018-05-11T10:28:55.179Z,18.00
2018-05-11T10:30:03.240Z,18.21
2018-05-11T10:31:11.299Z,18.33
2018-05-11T10:32:19.379Z,18.11
2018-05-11T10:33:27.445Z,18.41
2018-05-11T10:34:35.655Z,18.81
2018-05-11T10:35:43.607Z,18.71
2018-05-11T10:36:51.636Z,18.81
2018-05-11T10:37:59.741Z,18.76
2018-05-11T10:39:07.797Z,18.81
2018-05-11T10:40:15.865Z,18.96
2018-05-11T10:41:23.937Z,19.29
2018-05-11T10:42:31.974Z,19.48
2018-05-11T10:43:40.074Z,19.44
2018-05-11T10:44:48.147Z,19.34
2018-05-11T10:45:56.203Z,19.24
2018-05-11T10:47:04.283Z,19.17
2018-05-11T10:48:12.343Z,19.00
2018-05-11T10:49:20.422Z,18.21
2018-05-11T10:50:28.479Z,18.06
2018-05-11T10:51:36.571Z,18.24
2018-05-11T10:52:44.633Z,18.19
2018-05-11T10:53:52.674Z,18.13
2018-05-11T10:55:00.748Z,18.71
2018-05-11T10:56:08.830Z,18.21
2018-05-11T10:57:16.904Z,18.13
2018-05-11T10:58:24.971Z,18.36
2018-05-11T10:59:33.042Z,18.24
2018-05-11T11:00:41.121Z,18.45
2018-05-11T11:01:49.163Z,18.03
2018-05-11T11:02:57.248Z,18.03
2018-05-11T11:04:05.318Z,18.11
2018-05-11T11:05:13.372Z,18.02
2018-05-11T11:06:21.450Z,18.36
2018-05-11T11:07:29.520Z,18.30
2018-05-11T11:08:37.596Z,18.67
2018-05-11T11:09:45.640Z,18.70
2018-05-11T11:10:53.725Z,18.61
2018-05-11T11:12:01.780Z,18.96
2018-05-11T11:13:09.870Z,18.61
2018-05-11T11:14:17.937Z,18.76
2018-05-11T11:15:26.000Z,19.04
2018-05-11T11:16:34.095Z,19.08
2018-05-11T11:17:42.114Z,19.35
2018-05-11T11:18:50.205Z,19.55
2018-05-11T11:19:58.322Z,19.77
2018-05-11T11:21:06.356Z,19.74
2018-05-11T11:22:14.409Z,19.97
2018-05-11T11:23:22.458Z,20.24
2018-05-11T11:24:30.550Z,20.21
2018-05-11T11:25:38.618Z,20.58
2018-05-11T11:26:46.686Z,20.78
2018-05-11T11:27:54.754Z,20.56
2018-05-11T11:29:02.822Z,20.32
2018-05-11T11:30:10.909Z,19.42
2018-05-11T11:31:18.976Z,19.04
2018-05-11T11:32:27.033Z,18.43
2018-05-11T11:33:35.090Z,18.79
2018-05-11T11:34:43.203Z,18.83
2018-05-11T11:35:51.230Z,18.79
2018-05-11T11:36:59.309Z,18.79
2018-05-11T11:38:07.377Z,19.09
2018-05-11T11:39:15.446Z,19.27
2018-05-11T11:40:23.534Z,19.53
2018-05-11T11:41:31.563Z,19.45
2018-05-11T11:42:39.656Z,19.11
2018-05-11T11:43:47.703Z,19.01
2018-05-11T11:44:55.788Z,19.05
2018-05-11T11:46:03.844Z,19.08
2018-05-11T11:47:11.911Z,19.44
2018-05-11T11:48:19.986Z,19.41
2018-05-11T11:49:28.041Z,19.16
2018-05-11T11:50:36.129Z,18.94
2018-05-11T11:51:44.205Z,18.85
2018-05-11T11:52:52.257Z,18.94
2018-05-11T11:54:00.350Z,19.11
2018-05-11T11:55:08.411Z,19.24
2018-05-11T11:56:16.483Z,19.59
2018-05-11T11:57:24.528Z,19.72
2018-05-11T11:58:32.581Z,19.89
2018-05-11T11:59:40.689Z,19.82
2018-05-11T12:00:48.734Z,19.96
2018-05-11T12:01:56.894Z,19.70
2018-05-11T12:03:04.881Z,19.38
2018-05-11T12:04:12.947Z,19.48
2018-05-11T12:05:21.028Z,19.66
2018-05-11T12:06:29.073Z,19.71
2018-05-11T12:07:37.169Z,19.81
2018-05-11T12:08:45.229Z,19.87
2018-05-11T12:09:53.307Z,19.93
2018-05-11T12:11:01.355Z,20.07
2018-05-11T12:12:09.440Z,20.04
2018-05-11T12:13:17.511Z,19.97
2018-05-11T12:14:25.615Z,19.84
2018-05-11T12:15:33.634Z,19.84
2018-05-11T12:16:41.688Z,19.72
2018-05-11T12:17:49.783Z,19.34
2018-05-11T12:18:57.849Z,19.55
2018-05-11T12:20:05.920Z,19.66
2018-05-11T12:21:13.990Z,19.47
2018-05-11T12:22:22.009Z,19.59
2018-05-11T12:23:30.097Z,19.45
2018-05-11T12:24:38.171Z,19.52
2018-05-11T12:25:46.248Z,19.67
2018-05-11T12:26:54.332Z,19.60
2018-05-11T12:28:02.373Z,19.49
2018-05-11T12:29:10.474Z,19.71
2018-05-11T12:30:18.529Z,19.90
2018-05-11T12:31:26.595Z,20.07
2018-05-11T12:32:34.640Z,20.02
2018-05-11T12:33:42.729Z,20.12
2018-05-11T12:34:50.900Z,20.29
2018-05-11T12:35:58.865Z,20.40
2018-05-11T12:37:06.944Z,20.36
2018-05-11T12:38:15.020Z,20.55
2018-05-11T12:39:23.059Z,20.67
2018-05-11T12:40:31.145Z,20.14
2018-05-11T12:41:39.197Z,20.26
2018-05-11T12:42:47.267Z,20.36
2018-05-11T12:43:55.353Z,20.40
2018-05-11T12:45:03.425Z,20.48
2018-05-11T12:46:11.473Z,20.40
2018-05-11T12:47:19.547Z,20.53
2018-05-11T12:48:27.616Z,20.36
2018-05-11T12:49:35.696Z,20.50
2018-05-11T12:50:43.760Z,20.50
2018-05-11T12:51:51.783Z,20.37
2018-05-11T12:52:59.899Z,20.27
2018-05-11T12:54:07.944Z,20.08
2018-05-11T12:55:16.033Z,20.30
2018-05-11T12:56:24.123Z,20.07
2018-05-11T12:57:32.151Z,19.82
2018-05-11T12:58:40.243Z,19.57
2018-05-11T12:59:48.298Z,19.45
2018-05-11T13:00:56.357Z,19.15
2018-05-11T13:02:04.449Z,18.94
2018-05-11T13:03:12.493Z,18.85
2018-05-11T13:04:20.586Z,19.08
2018-05-11T13:05:28.648Z,19.16
2018-05-11T13:06:36.698Z,19.27
2018-05-11T13:07:44.771Z,19.26
2018-05-11T13:08:52.851Z,19.34
2018-05-11T13:10:00.913Z,19.44
2018-05-11T13:11:08.987Z,19.45
2018-05-11T13:12:17.049Z,19.39
2018-05-11T13:13:25.113Z,19.47
2018-05-11T13:14:33.165Z,19.55
2018-05-11T13:15:41.245Z,19.75
2018-05-11T13:16:49.329Z,19.72
2018-05-11T13:17:57.394Z,19.87
2018-05-11T13:19:05.478Z,19.82
2018-05-11T13:20:13.544Z,19.66
2018-05-11T13:21:21.648Z,19.79
2018-05-11T13:22:29.652Z,19.92
2018-05-11T13:23:37.744Z,20.00
2018-05-11T13:24:45.785Z,20.15
2018-05-11T13:25:53.856Z,20.08
2018-05-11T13:27:01.913Z,20.18
2018-05-11T13:28:09.990Z,19.93
2018-05-11T13:29:18.079Z,20.00
2018-05-11T13:30:26.173Z,20.11
2018-05-11T13:31:34.211Z,20.08
2018-05-11T13:32:42.250Z,20.14
2018-05-11T13:33:50.343Z,20.18
2018-05-11T13:34:58.403Z,20.36
2018-05-11T13:36:06.490Z,20.24
2018-05-11T13:37:14.541Z,19.96
2018-05-11T13:38:22.634Z,19.94
2018-05-11T13:39:30.664Z,19.94
2018-05-11T13:40:38.753Z,20.02
2018-05-11T13:41:46.806Z,20.22
2018-05-11T13:42:54.884Z,20.22
2018-05-11T13:44:02.961Z,20.36
2018-05-11T13:45:11.015Z,20.46
2018-05-11T13:46:19.076Z,19.84
2018-05-11T13:47:27.146Z,19.87
2018-05-11T13:48:35.281Z,19.99
2018-05-11T13:49:43.279Z,20.11
2018-05-11T13:50:51.350Z,20.22
2018-05-11T13:51:59.424Z,20.26
2018-05-11T13:53:07.526Z,20.26
2018-05-11T13:54:15.566Z,20.36
2018-05-11T13:55:23.642Z,20.24
2018-05-11T13:56:31.737Z,20.40
2018-05-11T13:57:39.767Z,20.42
2018-05-11T13:58:47.838Z,20.48
2018-05-11T13:59:55.893Z,20.34
2018-05-11T14:01:03.963Z,20.17
2018-05-11T14:02:12.016Z,20.26
2018-05-11T14:03:20.089Z,20.17
2018-05-11T14:04:28.196Z,20.32
2018-05-11T14:05:36.253Z,20.36
2018-05-11T14:06:44.310Z,20.39
2018-05-11T14:07:52.360Z,20.36
2018-05-11T14:09:00.446Z,20.40
2018-05-11T14:10:08.541Z,20.29
2018-05-11T14:11:16.577Z,20.14
2018-05-11T14:12:24.631Z,20.03
2018-05-11T14:13:32.712Z,20.10
2018-05-11T14:14:40.787Z,19.99
2018-05-11T14:15:48.852Z,19.94
2018-05-11T14:16:56.907Z,19.96
2018-05-11T14:18:04.974Z,20.14
2018-05-11T14:19:13.046Z,20.18
2018-05-11T14:20:21.140Z,20.21
2018-05-11T14:21:29.201Z,20.26
2018-05-11T14:22:37.264Z,20.30
2018-05-11T14:23:45.347Z,19.92
2018-05-11T14:24:53.441Z,19.71
2018-05-11T14:26:01.467Z,19.74
2018-05-11T14:27:09.541Z,19.77
2018-05-11T14:28:17.600Z,19.81
2018-05-11T14:29:25.687Z,19.64
2018-05-11T14:30:33.733Z,19.62
2018-05-11T14:31:41.760Z,19.48
2018-05-11T14:32:49.863Z,19.62
2018-05-11T14:33:57.943Z,19.53
2018-05-11T14:35:06.003Z,19.63
2018-05-11T14:36:14.086Z,19.55
2018-05-11T14:37:22.117Z,19.70
2018-05-11T14:38:30.279Z,19.72
2018-05-11T14:39:38.255Z,19.71
2018-05-11T14:40:46.365Z,19.64
2018-05-11T14:41:54.397Z,19.74
2018-05-11T14:43:02.495Z,19.77
2018-05-11T14:44:10.571Z,19.90
2018-05-11T14:45:18.619Z,19.97
2018-05-11T14:46:26.684Z,20.08
2018-05-11T14:47:34.749Z,20.12
2018-05-11T14:48:42.810Z,20.12